Time;durP1;ratioP1;P1;durP2;ratioP2;P2;SDS_P1;SDS_P2;PMS_P1;PMS_P2;Temp;Humidity;BMP_temperature;BMP_pressure;BME280_temperature;BME280_humidity;BME280_pressure;Samples;Min_cycle;Max_cycle;Signal;HPM_P1;HPM_P2
2024/04/22 07:11:52;;;;;;;3.88;2.50;;;;;;;;;;13769015;21;3320894;-84
2024/04/22 07:16:54;;;;;;;3.88;2.40;;;;;;;;;;13745850;21;19992;-84
2024/04/22 07:22:00;;;;;;;3.35;2.40;;;;;;;;;;13699443;21;20042;-83
2024/04/22 07:27:01;;;;;;;4.05;2.70;;;;;;;;;;13745345;21;19992;-83
2024/04/22 07:32:02;;;;;;;3.30;2.30;;;;;;;;;;13744134;21;20019;-84
2024/04/22 07:37:04;;;;;;;3.33;2.88;;;;;;;;;;13745490;21;20022;-83
2024/04/22 07:42:05;;;;;;;3.85;2.25;;;;;;;;;;13747439;21;19996;-83
2024/04/22 07:47:06;;;;;;;3.88;3.00;;;;;;;;;;13747358;21;20001;-82
2024/04/22 07:52:07;;;;;;;3.88;2.33;;;;;;;;;;13760576;21;20420;-82
2024/04/22 07:57:09;;;;;;;2.88;2.05;;;;;;;;;;13759967;21;20007;-82
2024/04/22 08:02:10;;;;;;;2.67;1.75;;;;;;;;;;13707913;21;20002;-83
2024/04/22 08:07:13;;;;;;;3.15;2.20;;;;;;;;;;13719917;21;19991;-82
2024/04/22 08:12:15;;;;;;;3.10;1.80;;;;;;;;;;13725275;21;19996;-86
2024/04/22 08:17:16;;;;;;;2.85;1.40;;;;;;;;;;13700819;21;20019;-87
2024/04/22 08:22:17;;;;;;;3.03;1.77;;;;;;;;;;13701453;21;20291;-85
2024/04/22 08:27:18;;;;;;;4.70;2.30;;;;;;;;;;13696105;21;19992;-85
2024/04/22 08:32:19;;;;;;;2.97;2.40;;;;;;;;;;13745223;21;19998;-84
2024/04/22 08:37:20;;;;;;;3.80;2.40;;;;;;;;;;13743168;21;19995;-84
2024/04/22 08:42:23;;;;;;;4.07;2.10;;;;;;;;;;13742105;21;20007;-85
2024/04/22 08:47:24;;;;;;;3.65;2.20;;;;;;;;;;13695625;21;19995;-84
2024/04/22 08:52:25;;;;;;;2.25;1.80;;;;;;;;;;13743078;21;19995;-85
2024/04/22 08:57:26;;;;;;;3.97;2.40;;;;;;;;;;13696021;21;20006;-83
2024/04/22 09:02:27;;;;;;;4.00;2.83;;;;;;;;;;13742042;21;19991;-84
2024/04/22 09:07:28;;;;;;;3.92;2.80;;;;;;;;;;13754033;21;19992;-84
2024/04/22 09:12:29;;;;;;;3.45;2.55;;;;;;;;;;13729467;21;19983;-85
2024/04/22 09:17:31;;;;;;;3.08;2.45;;;;;;;;;;13748223;21;20006;-85
2024/04/22 09:22:32;;;;;;;2.70;1.73;;;;;;;;;;13746448;21;19995;-83
2024/04/22 09:27:34;;;;;;;3.10;2.00;;;;;;;;;;13751920;21;20014;-83
2024/04/22 09:32:35;;;;;;;2.95;1.85;;;;;;;;;;13702781;21;20002;-83
2024/04/22 09:37:37;;;;;;;2.17;1.63;;;;;;;;;;13745593;21;20002;-82
2024/04/22 09:42:40;;;;;;;3.38;2.88;;;;;;;;;;13755305;21;20006;-81
2024/04/22 09:47:42;;;;;;;3.25;2.92;;;;;;;;;;13749241;21;19992;-84
2024/04/22 09:52:43;;;;;;;4.03;2.75;;;;;;;;;;13699750;21;20422;-83
2024/04/22 09:57:45;;;;;;;3.83;1.42;;;;;;;;;;13754087;21;20006;-82
2024/04/22 10:02:46;;;;;;;3.30;1.80;;;;;;;;;;13761756;21;20064;-82
2024/04/22 10:07:48;;;;;;;4.55;3.47;;;;;;;;;;13762072;21;20007;-81
2024/04/22 10:12:49;;;;;;;5.15;2.83;;;;;;;;;;13765774;21;20420;-82
2024/04/22 10:17:50;;;;;;;5.25;4.05;;;;;;;;;;13766052;21;20015;-80
2024/04/22 10:22:51;;;;;;;3.33;2.47;;;;;;;;;;13726931;21;19991;-80
2024/04/22 10:27:52;;;;;;;;;;;;;;;;;;13763278;21;20028;-81
2024/04/22 10:32:53;;;;;;;2.50;1.80;;;;;;;;;;13760750;21;19921;-82
2024/04/22 10:37:54;;;;;;;;;;;;;;;;;;13751182;21;20016;-83
2024/04/22 10:42:56;;;;;;;4.40;3.22;;;;;;;;;;13743982;21;19921;-83
2024/04/22 10:47:57;;;;;;;3.30;2.30;;;;;;;;;;13748843;21;19995;-82
2024/04/22 10:52:58;;;;;;;5.45;2.90;;;;;;;;;;13698461;21;19988;-83
2024/04/22 10:58:00;;;;;;;3.25;1.98;;;;;;;;;;13743077;21;20003;-85
2024/04/22 11:03:08;;;;;;;4.82;2.10;;;;;;;;;;13747175;21;20423;-84
2024/04/22 11:08:10;;;;;;;5.68;2.22;;;;;;;;;;13748543;21;19991;-84
2024/04/22 11:13:11;;;;;;;4.35;2.80;;;;;;;;;;13743440;21;20307;-86
2024/04/22 11:18:12;;;;;;;3.35;2.13;;;;;;;;;;13745427;21;20002;-84
2024/04/22 11:23:13;;;;;;;4.45;2.80;;;;;;;;;;13747198;21;20412;-84
2024/04/22 11:28:14;;;;;;;3.85;3.13;;;;;;;;;;13755433;21;20002;-82
2024/04/22 11:33:15;;;;;;;3.60;2.63;;;;;;;;;;13777971;21;20061;-83
2024/04/22 11:38:23;;;;;;;2.67;2.10;;;;;;;;;;13747836;21;20042;-83
2024/04/22 11:43:25;;;;;;;2.90;1.85;;;;;;;;;;13752405;21;19995;-85
2024/04/22 11:48:26;;;;;;;6.53;1.60;;;;;;;;;;13704068;21;19991;-83
2024/04/22 11:53:27;;;;;;;4.97;3.83;;;;;;;;;;13761301;21;19996;-86
2024/04/22 11:58:28;;;;;;;2.72;1.77;;;;;;;;;;13750386;21;20018;-84
2024/04/22 12:03:29;;;;;;;;;;;;;;;;;;13746410;21;19991;-84
2024/04/22 12:08:30;;;;;;;2.92;1.70;;;;;;;;;;13746207;21;20256;-84
2024/04/22 12:13:31;;;;;;;;;;;;;;;;;;13698769;21;20004;-86
2024/04/22 12:18:32;;;;;;;2.20;1.50;;;;;;;;;;13740560;21;19929;-83
2024/04/22 12:23:33;;;;;;;;;;;;;;;;;;13697094;21;20374;-85
2024/04/22 12:28:34;;;;;;;4.30;2.38;;;;;;;;;;13706723;21;19920;-84
2024/04/22 12:33:35;;;;;;;;;;;;;;;;;;13715588;21;20008;-85
2024/04/22 12:38:36;;;;;;;5.68;2.75;;;;;;;;;;13758098;21;19958;-85
2024/04/22 12:43:37;;;;;;;;;;;;;;;;;;13722677;21;20023;-85
2024/04/22 12:53:58;;;;;;;9.83;2.93;;;;;;;;;;13755041;21;19992;-85
2024/04/22 12:59:00;;;;;;;3.28;2.05;;;;;;;;;;13741175;21;19991;-85
2024/04/22 13:04:01;;;;;;;4.05;1.83;;;;;;;;;;13740261;21;20025;-86
2024/04/22 13:09:02;;;;;;;3.75;2.22;;;;;;;;;;13738299;21;20027;-85
2024/04/22 13:14:03;;;;;;;;;;;;;;;;;;13740881;21;20031;-85
2024/04/22 13:19:04;;;;;;;7.05;2.58;;;;;;;;;;13690480;21;19920;-86
2024/04/22 13:24:05;;;;;;;2.95;2.30;;;;;;;;;;13738209;21;19996;-85
2024/04/22 13:29:06;;;;;;;5.10;2.00;;;;;;;;;;13743778;21;20008;-84
2024/04/22 13:34:07;;;;;;;;;;;;;;;;;;13746914;21;20003;-85
2024/04/22 14:59:38;;;;;;;2.33;1.88;;;;;;;;;;13892688;21;19916;-84
2024/04/22 15:04:53;;;;;;;2.03;1.40;;;;;;;;;;13887127;21;20421;-85
2024/04/22 15:21:18;;;;;;;3.45;2.88;;;;;;;;;;13871993;21;19990;-82
2024/04/22 15:26:42;;;;;;;3.92;3.00;;;;;;;;;;13827907;21;20001;-82
2024/04/22 15:37:57;;;;;;;2.47;1.80;;;;;;;;;;13844448;21;19991;-84
2024/04/22 15:43:47;;;;;;;4.13;3.55;;;;;;;;;;13537769;21;20519;-85
2024/04/22 16:00:07;;;;;;;2.75;1.65;;;;;;;;;;13526774;22;19985;-84
2024/04/22 16:11:07;;;;;;;2.40;1.88;;;;;;;;;;13490228;22;19985;-84
